Flight Number: EUR1197 Duration: 3:30
Departure: Athens Int'l (LGAV) at 06:30 Distance: 1300 Nm
Arrival: Gatwick Airport (EGKK) at 10:00 Equipment: A330-200

Weather Information
Athens Eleftherios Venizelos International Airport, Greece (LGAV) 37-56N 023-56E Sep 21, 2017 - 09:50 AM EDT / 2017.09.21 1350 UTC
Wind: from the WSW (250 degrees) at 14 MPH (12 KT):0
Visibility: greater than 7 mile(s):0
Sky conditions: mostly clear Temperature: 80 F (27 C) Dew Point: 44 F (7 C) Relative Humidity: 28% Pressure (altimeter): 29.88 in. Hg (1012 hPa)
ob: LGAV 211350Z 25012KT 9999 FEW020 27/07 Q1012 NOSIG cycle: 14
Sunrise: 04:14 Sunset: 16:19 (UTC)

London / Gatwick Airport, United Kingdom (EGKK) 51-09N 000-11W 0M Sep 21, 2017 - 09:50 AM EDT / 2017.09.21 1350 UTC
Wind: from the SSW (200 degrees) at 10 MPH (9 KT) (direction variable):0
Visibility: greater than 7 mile(s):0
Sky conditions: mostly cloudy Temperature: 62 F (17 C) Dew Point: 53 F (12 C) Relative Humidity: 72% Pressure (altimeter): 29.94 in. Hg (1014 hPa)
ob: EGKK 211350Z 20009KT 150V230 9999 BKN021 BKN038 17/12 Q1014 cycle: 14
Sunrise: 05:50 Sunset: 17:57 (UTC)

TAF:2017/09/21 12:15 TAF EGKK 211056Z 2112/2218 20012KT 9999 SCT030 TEMPO 2113/2118 8000 -RA BKN012 PROB30 TEMPO 2114/2117 4000 RA BKN008 BECMG 2116/2119 28005KT BECMG 2122/2201 7000 TEMPO 2201/2208 3000 BR BCFG PROB40 2203/2208 0400 FG BKN001 BECMG 2208/2211 9999

Previous Pireps for this route
Date Aircraft Flight time Fuel used Landing rate On time
2012-09-17MD-8103.3426749-221No
2012-10-04MD-8103.4425157-261No
2013-10-17A330-2003.50521860No
2013-10-18MD-813.00280000No
2014-08-14MD-8103.2721510-221No
(pireps marked green are flown by you)

Route map